createdAt,value
2017-08-17T00:00:16.883Z,97.33
2017-08-17T00:01:16.815Z,97.58
2017-08-17T00:02:16.963Z,98.95
2017-08-17T00:03:16.904Z,97.90
2017-08-17T00:04:16.858Z,97.90
2017-08-17T00:05:16.923Z,98.20
2017-08-17T00:06:16.469Z,98.29
2017-08-17T00:07:16.434Z,97.04
2017-08-17T00:08:16.456Z,96.98
2017-08-17T00:09:16.499Z,97.22
2017-08-17T00:10:16.546Z,97.23
2017-08-17T00:11:16.409Z,97.21
2017-08-17T00:12:16.451Z,97.45
2017-08-17T00:13:16.901Z,97.41
2017-08-17T00:14:16.833Z,97.68
2017-08-17T00:15:16.872Z,98.05
2017-08-17T00:16:16.911Z,97.82
2017-08-17T00:17:16.947Z,97.64
2017-08-17T00:18:16.990Z,98.41
2017-08-17T00:19:16.909Z,97.51
2017-08-17T00:20:16.963Z,98.23
2017-08-17T00:21:16.947Z,98.18
2017-08-17T00:22:16.884Z,98.14
2017-08-17T00:23:16.950Z,98.58
2017-08-17T00:24:16.496Z,98.92
2017-08-17T00:25:16.551Z,98.10
2017-08-17T00:26:16.528Z,97.62
2017-08-17T00:27:16.482Z,97.13
2017-08-17T00:28:16.555Z,97.55
2017-08-17T00:29:16.508Z,98.76
2017-08-17T00:30:16.465Z,99.15
2017-08-17T00:31:17.033Z,98.95
2017-08-17T00:32:16.974Z,98.48
2017-08-17T00:33:17.032Z,99.00
2017-08-17T00:34:16.972Z,98.46
2017-08-17T00:35:16.921Z,98.06
2017-08-17T00:36:16.917Z,98.94
2017-08-17T00:37:16.903Z,98.64
2017-08-17T00:38:17.041Z,98.72
2017-08-17T00:39:17.014Z,98.29
2017-08-17T00:40:16.982Z,98.63
2017-08-17T00:41:16.530Z,97.63
2017-08-17T00:42:16.582Z,97.33
2017-08-17T00:43:16.639Z,97.03
2017-08-17T00:44:16.547Z,97.28
2017-08-17T00:45:16.605Z,96.99
2017-08-17T00:46:16.566Z,97.02
2017-08-17T00:47:16.606Z,97.04
2017-08-17T00:48:16.601Z,97.03
2017-08-17T00:49:16.545Z,96.93
2017-08-17T00:50:16.995Z,97.14
2017-08-17T00:51:17.027Z,97.31
2017-08-17T00:52:16.984Z,97.47
2017-08-17T00:53:17.203Z,97.36
2017-08-17T00:54:17.053Z,97.50
2017-08-17T00:55:16.973Z,97.48
2017-08-17T00:56:17.043Z,97.61
2017-08-17T00:57:17.012Z,98.22
2017-08-17T00:58:17.064Z,98.59
2017-08-17T00:59:16.624Z,98.75
2017-08-17T01:02:33.810Z,99.10
2017-08-17T01:02:34.412Z,99.64
2017-08-17T01:02:35.022Z,100.00
2017-08-17T01:03:16.740Z,100.00
2017-08-17T01:05:52.697Z,100.00
2017-08-17T01:05:53.711Z,99.61
2017-08-17T01:08:35.966Z,98.64
2017-08-17T01:08:36.979Z,98.92
2017-08-17T01:08:37.584Z,98.86
2017-08-17T01:11:58.519Z,98.29
2017-08-17T01:11:59.128Z,97.36
2017-08-17T01:11:59.740Z,97.65
2017-08-17T01:15:05.850Z,97.15
2017-08-17T01:15:06.505Z,96.58
2017-08-17T01:15:07.119Z,96.73
2017-08-17T01:20:17.112Z,97.30
2017-08-17T01:20:17.723Z,97.07
2017-08-17T01:20:18.331Z,96.81
2017-08-17T01:22:25.569Z,97.16
2017-08-17T01:22:26.587Z,97.21
2017-08-17T01:23:16.596Z,97.24
2017-08-17T01:26:38.874Z,97.16
2017-08-17T01:26:39.885Z,97.07
2017-08-17T01:26:40.494Z,97.18
2017-08-17T01:32:18.726Z,97.07
2017-08-17T01:32:19.432Z,96.91
2017-08-17T01:32:20.042Z,97.25
2017-08-17T01:34:25.574Z,97.61
2017-08-17T01:34:26.591Z,98.46
2017-08-17T01:35:18.222Z,97.67
2017-08-17T01:38:39.826Z,97.91
2017-08-17T01:38:40.838Z,97.54
2017-08-17T01:38:41.451Z,97.29
2017-08-17T01:41:47.681Z,96.62
2017-08-17T01:41:48.692Z,97.19
2017-08-17T01:41:49.303Z,97.10
2017-08-17T01:44:29.837Z,98.33
2017-08-17T01:44:30.893Z,98.01
2017-08-17T01:44:31.500Z,97.80
2017-08-17T01:46:30.501Z,96.86
2017-08-17T01:46:31.106Z,96.79
2017-08-17T01:47:18.517Z,97.17
2017-08-17T01:50:35.896Z,97.20
2017-08-17T01:50:36.508Z,97.37
2017-08-17T01:50:37.117Z,96.52
2017-08-17T01:57:08.851Z,97.00
2017-08-17T01:57:09.918Z,97.07
2017-08-17T01:57:10.521Z,97.02
2017-08-17T01:57:11.130Z,97.06
2017-08-17T01:57:11.741Z,96.82
2017-08-17T01:57:12.349Z,98.87
2017-08-17T01:59:52.522Z,98.46
2017-08-17T01:59:53.631Z,98.21
2017-08-17T01:59:54.246Z,97.96
2017-08-17T02:00:18.541Z,98.50
2017-08-17T02:01:18.873Z,98.35
2017-08-17T02:02:18.309Z,99.29
2017-08-17T02:03:18.415Z,99.48
2017-08-17T02:04:18.312Z,97.05
2017-08-17T02:05:18.286Z,97.65
2017-08-17T02:06:18.234Z,97.44
2017-08-17T02:07:19.266Z,98.36
2017-08-17T02:08:18.705Z,98.66
2017-08-17T02:09:19.233Z,98.41
2017-08-17T02:10:18.806Z,98.08
2017-08-17T02:11:19.134Z,97.84
2017-08-17T02:12:18.681Z,98.61
2017-08-17T02:13:19.130Z,98.12
2017-08-17T02:14:18.686Z,98.62
2017-08-17T02:15:19.537Z,98.68
2017-08-17T02:16:18.781Z,99.03
2017-08-17T02:17:19.327Z,99.16
2017-08-17T02:18:18.353Z,97.76
2017-08-17T02:19:19.350Z,98.93
2017-08-17T02:20:18.288Z,97.61
2017-08-17T02:21:18.566Z,97.13
2017-08-17T02:22:18.291Z,97.28
2017-08-17T02:23:19.311Z,98.63
2017-08-17T02:24:18.445Z,98.39
2017-08-17T02:25:18.468Z,97.33
2017-08-17T02:26:18.345Z,97.99
2017-08-17T02:27:19.151Z,97.36
2017-08-17T02:28:18.873Z,97.29
2017-08-17T02:29:19.835Z,96.93
2017-08-17T02:30:18.798Z,96.74
2017-08-17T02:31:19.509Z,96.81
2017-08-17T02:32:18.798Z,96.76
2017-08-17T02:33:19.354Z,96.83
2017-08-17T02:34:18.892Z,96.75
2017-08-17T02:35:19.573Z,96.92
2017-08-17T02:36:18.365Z,96.83
2017-08-17T02:37:19.793Z,97.29
2017-08-17T02:38:18.445Z,96.89
2017-08-17T02:39:19.697Z,97.03
2017-08-17T02:40:18.350Z,97.26
2017-08-17T02:41:18.757Z,97.83
2017-08-17T02:42:18.337Z,98.27
2017-08-17T02:43:19.260Z,99.20
2017-08-17T02:44:18.682Z,98.10
2017-08-17T02:45:19.250Z,97.94
2017-08-17T02:46:18.888Z,98.80
2017-08-17T02:47:19.329Z,98.76
2017-08-17T02:48:18.781Z,97.39
2017-08-17T02:49:19.760Z,97.56
2017-08-17T02:50:18.794Z,96.71
2017-08-17T02:51:19.791Z,97.03
2017-08-17T02:52:18.371Z,97.66
2017-08-17T02:53:19.583Z,97.41
2017-08-17T02:54:18.432Z,97.05
2017-08-17T02:55:18.584Z,97.23
2017-08-17T02:56:18.382Z,98.66
2017-08-17T02:57:18.701Z,98.63
2017-08-17T02:58:18.425Z,98.18
2017-08-17T02:59:18.796Z,97.75
2017-08-17T03:00:18.392Z,97.84
2017-08-17T03:01:19.756Z,97.62
2017-08-17T03:02:18.402Z,97.70
2017-08-17T03:03:19.653Z,97.31
2017-08-17T03:04:18.407Z,97.37
2017-08-17T03:05:19.737Z,97.10
2017-08-17T03:06:18.423Z,97.41
2017-08-17T03:07:19.800Z,97.92
2017-08-17T03:08:18.835Z,97.79
2017-08-17T03:09:19.812Z,97.90
2017-08-17T03:10:18.375Z,98.50
2017-08-17T03:11:19.444Z,99.41
2017-08-17T03:12:18.470Z,99.71
2017-08-17T03:13:18.563Z,99.59
2017-08-17T03:14:18.442Z,99.50
2017-08-17T03:15:18.497Z,98.85
2017-08-17T03:16:18.450Z,99.17
2017-08-17T03:17:19.546Z,98.95
2017-08-17T03:18:18.942Z,98.61
2017-08-17T03:19:19.582Z,97.84
2017-08-17T03:20:18.875Z,98.56
2017-08-17T03:21:19.693Z,98.70
2017-08-17T03:22:18.868Z,98.53
2017-08-17T03:23:19.409Z,98.07
2017-08-17T03:24:18.974Z,97.66
2017-08-17T03:25:19.807Z,99.03
2017-08-17T03:26:18.412Z,99.23
2017-08-17T03:27:19.615Z,98.69
2017-08-17T03:28:18.529Z,98.88
2017-08-17T03:29:19.603Z,97.92
2017-08-17T03:30:18.482Z,97.07
2017-08-17T03:31:18.690Z,97.57
2017-08-17T03:32:18.487Z,98.36
2017-08-17T03:33:18.828Z,97.23
2017-08-17T03:34:18.497Z,98.23
2017-08-17T03:35:18.724Z,97.37
2017-08-17T03:36:18.491Z,97.38
2017-08-17T03:37:19.561Z,98.08
2017-08-17T03:38:18.495Z,97.99
2017-08-17T03:39:19.555Z,98.26
2017-08-17T03:40:18.944Z,98.81
2017-08-17T03:41:19.607Z,99.84
2017-08-17T03:42:18.989Z,100.00
2017-08-17T03:43:19.815Z,99.26
2017-08-17T03:44:19.017Z,99.15
2017-08-17T03:45:19.391Z,100.00
2017-08-17T03:46:18.532Z,100.00
2017-08-17T03:47:18.588Z,99.37
2017-08-17T03:48:18.584Z,98.89
2017-08-17T03:49:18.806Z,98.86
2017-08-17T03:50:18.568Z,98.77
2017-08-17T03:51:18.634Z,98.44
2017-08-17T03:52:14.045Z,98.44
2017-08-17T03:54:10.711Z,98.31
2017-08-17T03:54:11.728Z,98.04
2017-08-17T03:54:18.549Z,98.36
2017-08-17T03:55:19.605Z,98.17
2017-08-17T03:56:18.956Z,98.19
2017-08-17T03:57:19.724Z,98.27
2017-08-17T03:58:18.939Z,98.41
2017-08-17T03:59:19.629Z,96.73
2017-08-17T04:00:19.013Z,97.82
2017-08-17T04:01:19.866Z,99.37
2017-08-17T04:02:18.558Z,97.87
2017-08-17T04:03:19.881Z,97.65
2017-08-17T04:04:18.557Z,97.87
2017-08-17T04:05:18.716Z,98.36
2017-08-17T04:06:18.558Z,99.25
2017-08-17T04:07:18.740Z,99.66
2017-08-17T04:08:18.579Z,98.91
2017-08-17T04:09:19.720Z,98.18
2017-08-17T04:10:18.557Z,99.39
2017-08-17T04:11:19.942Z,97.67
2017-08-17T04:12:18.654Z,97.61
2017-08-17T04:13:19.541Z,98.26
2017-08-17T04:14:19.074Z,98.42
2017-08-17T04:15:19.700Z,98.20
2017-08-17T04:16:19.013Z,98.38
2017-08-17T04:17:19.764Z,98.49
2017-08-17T04:18:19.038Z,97.94
2017-08-17T04:19:19.982Z,98.25
2017-08-17T04:20:19.184Z,98.23
2017-08-17T04:21:18.728Z,98.28
2017-08-17T04:22:18.616Z,97.79
2017-08-17T04:23:18.782Z,97.77
2017-08-17T04:24:18.627Z,97.38
2017-08-17T04:25:18.795Z,97.88
2017-08-17T04:26:18.662Z,98.15
2017-08-17T04:27:18.825Z,98.00
2017-08-17T04:28:18.636Z,97.99
2017-08-17T04:29:19.742Z,99.35
2017-08-17T04:30:18.678Z,99.96
2017-08-17T04:31:19.755Z,99.71
2017-08-17T04:32:19.026Z,99.91
2017-08-17T04:33:19.487Z,100.00
2017-08-17T04:34:19.066Z,100.00
2017-08-17T04:35:19.899Z,100.00
2017-08-17T04:36:19.107Z,99.78
2017-08-17T04:37:19.914Z,99.64
2017-08-17T04:38:18.690Z,99.50
2017-08-17T04:39:19.929Z,99.46
2017-08-17T04:40:18.697Z,99.50
2017-08-17T04:41:18.745Z,99.75
2017-08-17T04:42:18.747Z,99.51
2017-08-17T04:43:18.901Z,99.25
2017-08-17T04:44:18.776Z,99.79
2017-08-17T04:45:18.906Z,99.17
2017-08-17T04:46:18.727Z,98.67
2017-08-17T04:47:19.986Z,98.54
2017-08-17T04:48:18.725Z,98.62
2017-08-17T04:49:19.673Z,98.50
2017-08-17T04:50:19.213Z,97.98
2017-08-17T04:51:20.011Z,98.00
2017-08-17T04:52:19.148Z,97.76
2017-08-17T04:53:20.024Z,98.06
2017-08-17T04:54:18.676Z,97.64
2017-08-17T04:55:20.039Z,97.29
2017-08-17T04:56:18.696Z,97.60
2017-08-17T04:57:20.121Z,97.51
2017-08-17T04:58:18.790Z,97.38
2017-08-17T04:59:19.001Z,97.08
2017-08-17T05:00:18.744Z,96.92
2017-08-17T05:01:20.100Z,96.93
2017-08-17T05:02:18.805Z,96.84
2017-08-17T05:03:19.891Z,97.16
2017-08-17T05:04:18.768Z,96.55
2017-08-17T05:05:19.905Z,96.56
2017-08-17T05:06:18.823Z,96.33
2017-08-17T05:07:20.123Z,95.87
2017-08-17T05:08:19.154Z,96.00
2017-08-17T05:09:19.934Z,95.82
2017-08-17T05:10:19.209Z,95.34
2017-08-17T05:11:20.141Z,95.19
2017-08-17T05:12:18.754Z,95.12
2017-08-17T05:13:18.798Z,94.97
2017-08-17T05:14:18.776Z,95.09
2017-08-17T05:15:19.975Z,94.87
2017-08-17T05:16:18.847Z,93.96
2017-08-17T05:17:18.917Z,93.20
2017-08-17T05:18:18.877Z,92.64
2017-08-17T05:19:18.999Z,93.01
2017-08-17T05:20:18.903Z,92.78
2017-08-17T05:21:18.942Z,92.35
2017-08-17T05:22:18.839Z,92.67
2017-08-17T05:23:20.030Z,91.95
2017-08-17T05:24:19.282Z,91.60
2017-08-17T05:25:20.024Z,91.27
2017-08-17T05:26:18.831Z,91.88
2017-08-17T05:27:20.161Z,91.49
2017-08-17T05:28:19.194Z,91.65
2017-08-17T05:29:19.856Z,92.17
2017-08-17T05:30:18.853Z,92.23
2017-08-17T05:31:20.066Z,92.14
2017-08-17T05:32:18.862Z,91.84
2017-08-17T05:33:19.041Z,90.89
2017-08-17T05:34:18.856Z,89.82
2017-08-17T05:35:19.109Z,90.57
2017-08-17T05:36:18.911Z,90.42
2017-08-17T05:37:19.126Z,90.77
2017-08-17T05:38:18.952Z,90.08
2017-08-17T05:39:19.955Z,90.00
2017-08-17T05:40:18.872Z,89.83
2017-08-17T05:41:19.832Z,90.59
2017-08-17T05:42:19.268Z,88.65
2017-08-17T05:43:19.816Z,89.00
2017-08-17T05:44:19.277Z,88.72
2017-08-17T05:45:19.950Z,87.73
2017-08-17T05:46:18.827Z,86.88
2017-08-17T05:47:19.598Z,87.44
2017-08-17T05:48:18.949Z,87.56
2017-08-17T05:49:20.371Z,87.73
2017-08-17T05:50:18.959Z,88.84
2017-08-17T05:51:19.002Z,88.23
2017-08-17T05:52:18.944Z,88.38
2017-08-17T05:53:19.160Z,87.99
2017-08-17T05:54:18.945Z,88.90
2017-08-17T05:55:20.234Z,89.56
2017-08-17T05:56:18.978Z,90.28
2017-08-17T05:57:20.291Z,89.84
2017-08-17T05:58:18.912Z,89.48
2017-08-17T07:00:15.194Z,87.30
2017-08-17T07:00:46.446Z,86.22
2017-08-17T07:01:39.140Z,86.70
2017-08-17T07:02:50.033Z,87.83
2017-08-17T07:03:29.206Z,87.31
2017-08-17T07:04:29.230Z,87.95
2017-08-17T07:05:29.266Z,86.74
2017-08-17T07:06:50.086Z,86.57
2017-08-17T07:07:29.432Z,86.67
2017-08-17T07:08:29.257Z,86.63
2017-08-17T07:09:29.355Z,86.69
2017-08-17T07:10:50.129Z,87.02
2017-08-17T07:11:29.361Z,86.93
2017-08-17T07:12:29.266Z,87.50
2017-08-17T07:13:50.124Z,85.55
2017-08-17T07:14:32.773Z,84.66
2017-08-17T07:15:29.361Z,84.44
2017-08-17T07:16:53.099Z,83.76
2017-08-17T07:17:29.316Z,82.58
2017-08-17T07:18:29.344Z,83.19
2017-08-17T07:19:50.076Z,83.60
2017-08-17T07:20:29.261Z,83.12
2017-08-17T07:21:29.286Z,82.74
2017-08-17T07:22:29.339Z,83.41
2017-08-17T07:23:50.096Z,83.20
2017-08-17T07:24:29.322Z,83.01
2017-08-17T07:25:29.414Z,83.25
2017-08-17T07:26:29.279Z,83.05
2017-08-17T07:27:50.075Z,80.45
2017-08-17T07:28:29.344Z,79.28
2017-08-17T07:29:29.345Z,79.06
2017-08-17T07:30:50.101Z,79.68
2017-08-17T07:31:29.359Z,80.56
2017-08-17T07:32:29.393Z,78.60
2017-08-17T07:33:29.302Z,78.19
2017-08-17T07:34:50.100Z,79.27
2017-08-17T07:35:29.361Z,78.95
2017-08-17T07:36:29.440Z,77.46
2017-08-17T07:37:29.325Z,78.30
2017-08-17T07:38:50.104Z,79.01
2017-08-17T07:39:29.333Z,77.60
2017-08-17T07:40:29.382Z,78.15
2017-08-17T07:41:29.407Z,78.11
2017-08-17T07:42:50.077Z,76.43
2017-08-17T07:43:29.413Z,76.66
2017-08-17T07:45:20.964Z,74.44
2017-08-17T07:45:52.131Z,74.44
2017-08-17T07:46:50.575Z,75.96
2017-08-17T07:47:50.142Z,77.76
2017-08-17T07:48:29.451Z,78.29
2017-08-17T07:49:29.431Z,78.09
2017-08-17T07:50:29.427Z,78.87
2017-08-17T07:51:50.123Z,79.63
2017-08-17T07:52:29.384Z,80.34
2017-08-17T07:53:29.456Z,80.78
2017-08-17T07:54:29.414Z,80.00
2017-08-17T07:55:50.551Z,81.38
2017-08-17T07:56:29.420Z,80.20
2017-08-17T07:57:29.399Z,81.59
2017-08-17T07:58:29.678Z,81.68
2017-08-17T07:59:50.127Z,80.82
2017-08-17T08:00:29.420Z,80.72
2017-08-17T08:01:29.477Z,81.41
2017-08-17T08:02:29.444Z,80.52
2017-08-17T08:03:50.152Z,81.36
2017-08-17T08:04:29.372Z,82.08
2017-08-17T08:05:29.459Z,81.71
2017-08-17T08:06:50.295Z,81.10
2017-08-17T08:07:29.419Z,81.48
2017-08-17T08:08:29.436Z,81.07
2017-08-17T08:09:29.437Z,80.41
2017-08-17T08:10:50.376Z,81.10
2017-08-17T08:11:29.672Z,81.39
2017-08-17T08:12:29.467Z,82.63
2017-08-17T08:13:29.474Z,82.73
2017-08-17T08:14:50.238Z,82.24
2017-08-17T08:15:29.517Z,81.42
2017-08-17T08:16:29.470Z,81.38
2017-08-17T08:17:31.711Z,80.17
2017-08-17T08:18:50.262Z,80.15
2017-08-17T08:19:29.519Z,80.43
2017-08-17T08:20:29.458Z,80.29
2017-08-17T08:21:29.510Z,79.72
2017-08-17T08:22:50.417Z,80.09
2017-08-17T08:23:29.468Z,80.07
2017-08-17T08:24:29.439Z,80.77
2017-08-17T08:25:50.240Z,80.17
2017-08-17T08:26:29.497Z,81.47
2017-08-17T08:27:29.497Z,80.92
2017-08-17T08:28:29.499Z,80.68
2017-08-17T08:29:50.354Z,80.21
2017-08-17T08:30:29.585Z,80.31
2017-08-17T08:31:29.554Z,81.41
2017-08-17T08:32:29.524Z,81.14
2017-08-17T08:33:50.581Z,80.92
2017-08-17T08:34:37.078Z,82.14
2017-08-17T08:35:30.303Z,80.43
2017-08-17T08:36:50.246Z,81.60
2017-08-17T08:37:28.168Z,81.60
2017-08-17T08:38:20.869Z,81.51
2017-08-17T08:38:52.433Z,81.70
2017-08-17T08:39:40.865Z,81.41
2017-08-17T08:40:50.582Z,81.60
2017-08-17T08:41:29.746Z,81.23
2017-08-17T08:42:29.597Z,82.12
2017-08-17T08:43:30.076Z,81.88
2017-08-17T08:44:50.433Z,81.24
2017-08-17T08:45:29.624Z,77.51
2017-08-17T08:46:29.585Z,77.41
2017-08-17T08:47:29.762Z,77.38
2017-08-17T08:48:50.784Z,76.23
2017-08-17T08:49:29.696Z,76.24
2017-08-17T08:50:29.690Z,76.43
2017-08-17T08:51:29.652Z,75.15
2017-08-17T08:52:50.392Z,75.16
2017-08-17T08:53:29.726Z,75.21
2017-08-17T08:54:29.620Z,75.37
2017-08-17T08:55:50.826Z,75.36
2017-08-17T08:56:29.671Z,74.12
2017-08-17T08:57:29.582Z,73.96
2017-08-17T08:58:27.960Z,73.96
2017-08-17T08:58:59.104Z,71.84
2017-08-17T08:59:57.783Z,73.97
2017-08-17T09:00:29.692Z,73.97
2017-08-17T09:01:29.667Z,74.80
2017-08-17T09:02:29.629Z,73.27
2017-08-17T09:03:50.458Z,73.77
2017-08-17T09:04:29.586Z,74.08
2017-08-17T09:05:29.739Z,73.85
2017-08-17T09:06:29.609Z,71.06
2017-08-17T09:07:50.443Z,72.09
2017-08-17T09:08:29.646Z,69.75
2017-08-17T09:09:29.662Z,68.79
2017-08-17T09:10:29.679Z,69.76
2017-08-17T09:11:50.564Z,67.11
2017-08-17T09:12:29.661Z,68.78
2017-08-17T09:13:29.738Z,65.56
2017-08-17T09:14:29.606Z,67.65
2017-08-17T09:15:50.492Z,67.46
2017-08-17T09:16:29.635Z,66.64
2017-08-17T09:17:29.691Z,66.32
2017-08-17T09:18:50.435Z,64.61
2017-08-17T09:19:28.178Z,64.61
2017-08-17T09:20:20.142Z,63.36
2017-08-17T09:20:51.316Z,63.74
2017-08-17T09:21:39.515Z,62.49
2017-08-17T09:22:50.482Z,63.26
2017-08-17T09:23:29.686Z,65.51
2017-08-17T09:24:29.651Z,62.48
2017-08-17T09:25:29.714Z,61.55
2017-08-17T09:26:50.380Z,62.31
2017-08-17T09:27:29.807Z,63.12
2017-08-17T09:28:29.620Z,64.43
2017-08-17T09:29:29.713Z,64.01
2017-08-17T09:30:50.385Z,62.58
2017-08-17T09:31:29.726Z,61.72
2017-08-17T09:32:29.722Z,63.82
2017-08-17T09:33:29.772Z,59.79
2017-08-17T09:34:50.487Z,57.94
2017-08-17T09:35:29.810Z,57.34
2017-08-17T09:36:29.758Z,59.35
2017-08-17T09:37:29.693Z,60.10
2017-08-17T09:38:50.453Z,57.58
2017-08-17T09:39:29.657Z,57.18
2017-08-17T09:40:29.650Z,57.98
2017-08-17T09:41:29.831Z,55.34
2017-08-17T09:42:50.560Z,55.31
2017-08-17T09:43:29.729Z,56.70
2017-08-17T09:44:29.743Z,54.57
2017-08-17T09:45:29.664Z,53.90
2017-08-17T09:46:50.636Z,55.39
2017-08-17T09:47:29.758Z,56.09
2017-08-17T09:48:29.825Z,56.14
2017-08-17T09:49:29.790Z,56.47
2017-08-17T09:50:50.517Z,54.40
2017-08-17T09:51:29.711Z,53.37
2017-08-17T09:52:29.712Z,54.08
2017-08-17T09:53:50.522Z,52.39
2017-08-17T09:54:29.850Z,51.91
2017-08-17T09:55:29.777Z,53.13
2017-08-17T09:56:29.716Z,54.39
2017-08-17T09:57:50.565Z,53.38
2017-08-17T09:58:29.741Z,53.38
2017-08-17T09:59:29.849Z,54.96
2017-08-17T10:00:29.790Z,53.11
2017-08-17T10:01:50.469Z,53.25
2017-08-17T10:02:29.740Z,54.13
2017-08-17T10:03:29.854Z,51.70
2017-08-17T10:04:29.772Z,50.45
2017-08-17T10:05:50.536Z,49.57
2017-08-17T10:06:29.731Z,52.50
2017-08-17T10:07:29.867Z,53.81
2017-08-17T10:08:34.662Z,53.69
2017-08-17T10:09:34.757Z,52.90
2017-08-17T10:10:34.740Z,54.34
2017-08-17T10:11:48.501Z,54.89
2017-08-17T10:12:50.592Z,54.73
2017-08-17T10:13:29.804Z,54.19
2017-08-17T10:14:29.787Z,55.40
2017-08-17T10:15:29.884Z,53.99
2017-08-17T10:16:50.982Z,55.71
2017-08-17T10:17:29.810Z,54.89
2017-08-17T10:18:29.818Z,54.14
2017-08-17T10:19:29.863Z,53.20
2017-08-17T10:20:53.584Z,54.84
2017-08-17T10:21:29.873Z,55.96
2017-08-17T10:22:29.781Z,52.98
2017-08-17T10:23:29.908Z,55.25
2017-08-17T10:24:50.588Z,52.35
2017-08-17T10:25:29.865Z,51.29
2017-08-17T10:26:29.851Z,51.85
2017-08-17T10:27:29.946Z,51.88
2017-08-17T10:28:50.614Z,52.01
2017-08-17T10:29:29.857Z,51.42
2017-08-17T10:30:29.855Z,48.86
2017-08-17T10:31:29.839Z,46.79
2017-08-17T10:32:50.686Z,49.71
2017-08-17T10:33:29.904Z,49.18
2017-08-17T10:34:29.932Z,48.26
2017-08-17T17:41:37.837Z,68.46
2017-08-17T17:42:20.764Z,68.11
2017-08-17T17:43:20.152Z,68.10
2017-08-17T17:44:19.785Z,68.63
2017-08-17T17:45:20.126Z,68.12
2017-08-17T17:46:21.416Z,68.86
2017-08-17T17:47:21.356Z,70.47
2017-08-17T17:48:21.365Z,70.31
2017-08-17T17:49:21.286Z,69.00
2017-08-17T17:50:21.403Z,69.72
2017-08-17T17:51:21.314Z,69.61
2017-08-17T17:52:21.443Z,69.75
2017-08-17T17:53:21.405Z,70.29
2017-08-17T17:54:20.938Z,69.85
2017-08-17T17:55:21.018Z,70.72
2017-08-17T17:56:20.957Z,69.37
2017-08-17T17:57:21.003Z,69.48
2017-08-17T17:58:23.581Z,70.04
2017-08-17T17:59:21.016Z,70.52
2017-08-17T18:00:21.410Z,70.85
2017-08-17T18:01:21.356Z,71.19
2017-08-17T18:02:21.397Z,70.34
2017-08-17T18:03:21.364Z,70.68
2017-08-17T18:04:21.415Z,71.29
2017-08-17T18:05:21.377Z,71.15
2017-08-17T18:06:21.394Z,70.67
2017-08-17T18:07:21.493Z,71.18
2017-08-17T18:08:21.380Z,72.91
2017-08-17T18:09:21.481Z,72.37
2017-08-17T18:10:21.404Z,71.56
2017-08-17T18:11:21.413Z,72.12
2017-08-17T18:12:21.527Z,72.29
2017-08-17T18:13:20.971Z,73.40
2017-08-17T18:14:20.944Z,73.29
2017-08-17T18:15:21.062Z,73.84
2017-08-17T18:16:21.026Z,73.86
2017-08-17T18:17:21.093Z,73.39
2017-08-17T18:18:21.077Z,74.03
2017-08-17T18:19:21.018Z,73.57
2017-08-17T18:20:21.405Z,74.08
2017-08-17T18:21:21.532Z,75.70
2017-08-17T18:22:21.447Z,75.45
2017-08-17T18:23:21.466Z,75.77
2017-08-17T18:24:21.463Z,74.82
2017-08-17T18:25:21.499Z,75.15
2017-08-17T18:26:21.438Z,74.77
2017-08-17T18:27:21.565Z,74.71
2017-08-17T18:28:21.518Z,75.73
2017-08-17T18:29:21.530Z,76.79
2017-08-17T18:30:21.104Z,76.47
2017-08-17T18:31:21.049Z,77.42
2017-08-17T18:32:21.721Z,77.90
2017-08-17T18:33:21.150Z,78.73
2017-08-17T18:34:21.073Z,78.60
2017-08-17T18:35:21.094Z,78.53
2017-08-17T18:36:21.144Z,79.04
2017-08-17T18:37:21.142Z,78.07
2017-08-17T18:38:21.031Z,78.29
2017-08-17T18:39:21.518Z,78.39
2017-08-17T18:40:22.133Z,78.79
2017-08-17T18:41:21.224Z,79.33
2017-08-17T18:42:21.551Z,78.15
2017-08-17T18:43:21.584Z,78.29
2017-08-17T18:44:21.538Z,79.61
2017-08-17T18:45:21.689Z,79.64
2017-08-17T18:46:21.073Z,79.79
2017-08-17T18:47:21.595Z,77.79
2017-08-17T18:48:21.103Z,78.20
2017-08-17T18:49:21.107Z,80.04
2017-08-17T18:50:21.133Z,78.84
2017-08-17T18:51:21.059Z,79.46
2017-08-17T18:52:21.222Z,79.27
2017-08-17T18:53:21.160Z,79.08
2017-08-17T18:54:21.211Z,79.21
2017-08-17T18:55:21.136Z,78.67
2017-08-17T18:56:21.572Z,79.73
2017-08-17T18:57:21.712Z,79.58
2017-08-17T18:58:21.576Z,78.91
2017-08-17T18:59:21.631Z,79.20
2017-08-17T19:00:21.697Z,79.69
2017-08-17T19:01:21.594Z,79.74
2017-08-17T19:02:21.702Z,79.38
2017-08-17T19:03:21.157Z,79.50
2017-08-17T19:04:21.151Z,79.20
2017-08-17T19:05:21.133Z,79.07
2017-08-17T19:06:21.140Z,79.70
2017-08-17T19:07:21.208Z,79.11
2017-08-17T19:08:21.189Z,80.47
2017-08-17T19:09:21.170Z,80.50
2017-08-17T19:10:21.192Z,80.55
2017-08-17T19:11:21.190Z,79.78
2017-08-17T19:12:21.198Z,80.13
2017-08-17T19:13:21.639Z,80.10
2017-08-17T19:14:21.551Z,80.49
2017-08-17T19:15:21.685Z,80.91
2017-08-17T19:16:21.614Z,80.93
2017-08-17T19:17:21.626Z,80.89
2017-08-17T19:18:21.646Z,80.65
2017-08-17T19:19:21.657Z,80.55
2017-08-17T19:20:21.167Z,81.03
2017-08-17T19:21:21.177Z,81.49
2017-08-17T19:22:21.272Z,82.43
2017-08-17T19:23:21.271Z,82.13
2017-08-17T19:24:21.182Z,82.88
2017-08-17T19:25:21.185Z,83.08
2017-08-17T19:26:21.265Z,82.96
2017-08-17T19:27:21.221Z,82.72
2017-08-17T19:28:21.634Z,82.60
2017-08-17T19:29:21.703Z,82.71
2017-08-17T19:30:21.730Z,83.08
2017-08-17T19:31:21.749Z,83.10
2017-08-17T19:32:21.804Z,83.82
2017-08-17T19:33:21.775Z,83.45
2017-08-17T19:34:21.694Z,83.39
2017-08-17T19:35:21.676Z,83.60
2017-08-17T19:36:21.798Z,83.86
2017-08-17T19:37:21.736Z,83.71
2017-08-17T19:38:21.226Z,83.85
2017-08-17T19:39:21.249Z,83.83
2017-08-17T19:40:21.337Z,83.96
2017-08-17T19:41:21.329Z,83.84
2017-08-17T19:42:21.299Z,84.34
2017-08-17T19:43:21.286Z,84.20
2017-08-17T19:44:21.328Z,84.14
2017-08-17T19:45:21.415Z,84.31
2017-08-17T19:46:21.373Z,84.24
2017-08-17T19:47:21.354Z,84.09
2017-08-17T19:48:21.781Z,84.14
2017-08-17T19:49:21.751Z,84.27
2017-08-17T19:50:21.759Z,84.27
2017-08-17T19:51:21.690Z,84.67
2017-08-17T19:52:21.779Z,84.81
2017-08-17T19:53:21.683Z,84.68
2017-08-17T19:54:21.274Z,84.82
2017-08-17T19:55:21.287Z,84.87
2017-08-17T19:56:21.305Z,85.25
2017-08-17T19:57:21.337Z,85.08
2017-08-17T19:58:21.311Z,85.01
2017-08-17T19:59:21.302Z,85.05
2017-08-17T20:00:21.601Z,85.04
2017-08-17T20:01:21.322Z,85.19
2017-08-17T20:02:23.146Z,85.31
2017-08-17T20:03:21.343Z,85.44
2017-08-17T20:04:21.738Z,85.43
2017-08-17T20:05:21.942Z,85.33
2017-08-17T20:06:21.878Z,85.60
2017-08-17T20:07:21.807Z,85.69
2017-08-17T20:08:21.709Z,85.53
2017-08-17T20:09:21.793Z,85.42
2017-08-17T20:10:21.765Z,85.30
2017-08-17T20:11:21.801Z,85.26
2017-08-17T20:12:21.336Z,85.61
2017-08-17T20:13:21.395Z,86.04
2017-08-17T20:14:21.442Z,85.48
2017-08-17T20:15:21.479Z,85.85
2017-08-17T20:16:21.421Z,86.15
2017-08-17T20:17:21.442Z,86.14
2017-08-17T20:18:21.368Z,86.08
2017-08-17T20:19:21.415Z,86.09
2017-08-17T20:20:21.461Z,86.04
2017-08-17T20:21:21.457Z,86.04
2017-08-17T20:22:21.858Z,86.00
2017-08-17T20:23:21.830Z,86.46
2017-08-17T20:24:21.838Z,86.80
2017-08-17T20:25:21.816Z,86.36
2017-08-17T20:26:21.872Z,86.51
2017-08-17T20:27:21.898Z,86.68
2017-08-17T20:28:21.824Z,86.65
2017-08-17T20:29:21.386Z,86.70
2017-08-17T20:30:21.441Z,86.24
2017-08-17T20:31:21.441Z,86.35
2017-08-17T20:32:21.455Z,86.69
2017-08-17T20:33:21.442Z,86.61
2017-08-17T20:34:21.395Z,86.20
2017-08-17T20:35:21.384Z,85.93
2017-08-17T20:36:21.359Z,86.01
2017-08-17T20:37:21.867Z,85.88
2017-08-17T20:38:21.871Z,85.63
2017-08-17T20:39:21.868Z,85.56
2017-08-17T20:40:21.816Z,85.93
2017-08-17T20:41:21.948Z,85.98
2017-08-17T20:42:21.920Z,85.98
2017-08-17T20:43:21.840Z,85.84
2017-08-17T20:44:21.863Z,85.89
2017-08-17T20:45:22.003Z,85.49
2017-08-17T20:46:21.431Z,84.83
2017-08-17T20:47:21.448Z,85.52
2017-08-17T20:48:21.475Z,85.51
2017-08-17T20:49:21.511Z,85.76
2017-08-17T20:50:21.582Z,85.08
2017-08-17T20:51:21.443Z,85.17
2017-08-17T20:52:21.521Z,84.79
2017-08-17T20:53:21.480Z,85.58
2017-08-17T20:54:21.501Z,86.27
2017-08-17T20:55:21.931Z,86.17
2017-08-17T20:56:21.923Z,85.29
2017-08-17T20:57:21.923Z,85.60
2017-08-17T20:58:21.960Z,85.84
2017-08-17T20:59:21.935Z,86.26
2017-08-17T21:00:21.987Z,86.03